Time;durP1;ratioP1;P1;durP2;ratioP2;P2;SDS_P1;SDS_P2;PMS_P1;PMS_P2;Temp;Humidity;BMP_temperature;BMP_pressure;BME280_temperature;BME280_humidity;BME280_pressure;Samples;Min_cycle;Max_cycle;Signal;HPM_P1;HPM_P2
2022/07/10 00:01:55;;;;;;;;;;;;;;;26.26;55.72;100654.31;5035793;28;19924;-85
2022/07/10 00:04:22;;;;;;;;;;;;;;;26.29;55.75;100643.56;5034574;28;20353;-87
2022/07/10 00:06:47;;;;;;;;;;;;;;;26.30;55.61;100642.66;5049685;28;19970;-86
2022/07/10 00:09:13;;;;;;;;;;;;;;;26.46;55.11;100636.22;5052477;28;19913;-87
2022/07/10 00:11:39;;;;;;;;;;;;;;;26.31;55.44;100642.66;5030571;28;19963;-86
2022/07/10 00:14:04;;;;;;;;;;;;;;;26.33;55.52;100639.94;5024747;28;20392;-85
2022/07/10 00:16:30;;;;;;;;;;;;;;;26.44;55.27;100630.00;5065756;28;19916;-87
2022/07/10 00:18:55;;;;;;;;;;;;;;;26.30;55.56;100637.31;5057543;28;19920;-85
2022/07/10 00:21:21;;;;;;;;;;;;;;;26.30;55.60;100627.50;5063008;28;19908;-86
2022/07/10 00:23:46;;;;;;;;;;;;;;;26.29;55.92;100639.13;5024072;28;19909;-86
2022/07/10 00:26:12;;;;;;;;;;;;;;;26.25;55.98;100634.69;5036013;28;19908;-87
2022/07/10 00:28:37;;;;;;;;;;;;;;;26.32;55.22;100632.81;5035829;28;19960;-88
2022/07/10 00:31:03;;;;;;;;;;;;;;;26.27;55.67;100631.97;5036722;28;20029;-86
2022/07/10 00:33:30;;;;;;;;;;;;;;;26.22;56.33;100628.50;5035473;28;20387;-86
2022/07/10 00:35:56;;;;;;;;;;;;;;;26.26;55.79;100624.88;5051641;28;19936;-87
2022/07/10 00:38:21;;;;;;;;;;;;;;;26.19;55.93;100622.28;5015718;28;20624;-88
2022/07/10 00:40:47;;;;;;;;;;;;;;;26.28;55.50;100626.63;5013324;28;19920;-87
2022/07/10 00:43:12;;;;;;;;;;;;;;;26.26;55.90;100632.91;5033317;28;19918;-87
2022/07/10 00:45:37;;;;;;;;;;;;;;;26.22;56.15;100621.34;5037440;28;19916;-88
2022/07/10 00:48:03;;;;;;;;;;;;;;;26.27;54.99;100622.19;5054236;28;19912;-87
2022/07/10 00:50:28;;;;;;;;;;;;;;;26.26;55.39;100611.50;5032375;28;19912;-89
2022/07/10 00:52:55;;;;;;;;;;;;;;;26.19;55.94;100624.06;5018073;28;19996;-88
2022/07/10 00:55:20;;;;;;;;;;;;;;;26.16;56.08;100613.38;5033579;28;19970;-88
2022/07/10 00:57:47;;;;;;;;;;;;;;;26.17;55.49;100612.50;5034239;28;19917;-89
2022/07/10 01:00:13;;;;;;;;;;;;;;;26.22;55.44;100607.09;5016780;28;20315;-88
2022/07/10 01:02:42;;;;;;;;;;;;;;;26.20;55.96;100617.78;5033961;28;19917;-89
2022/07/10 01:05:08;;;;;;;;;;;;;;;26.16;55.79;100616.06;5004037;28;19912;-90
2022/07/10 01:07:34;;;;;;;;;;;;;;;26.08;56.38;100626.88;5033676;28;19913;-90
2022/07/10 01:10:00;;;;;;;;;;;;;;;26.02;56.42;100626.97;5017063;28;20299;-89
2022/07/10 01:12:26;;;;;;;;;;;;;;;25.77;56.66;100607.59;5029723;28;19913;-88
2022/07/10 01:14:51;;;;;;;;;;;;;;;25.91;56.32;100627.09;5023230;28;20386;-88
2022/07/10 01:17:17;;;;;;;;;;;;;;;25.91;56.14;100639.59;5033273;28;20439;-88
2022/07/10 01:19:43;;;;;;;;;;;;;;;25.86;56.48;100619.97;5036191;28;19912;-87
2022/07/10 01:22:08;;;;;;;;;;;;;;;25.90;56.29;100630.66;5032424;28;20050;-87
2022/07/10 01:24:34;;;;;;;;;;;;;;;25.93;55.76;100637.75;5044933;28;19909;-87
2022/07/10 01:26:59;;;;;;;;;;;;;;;25.92;56.39;100627.97;5051742;28;19915;-88
2022/07/10 01:29:25;;;;;;;;;;;;;;;25.91;56.06;100629.75;5055643;28;19970;-89
2022/07/10 01:31:50;;;;;;;;;;;;;;;26.05;55.22;100631.38;5032629;28;19970;-88
2022/07/10 01:34:17;;;;;;;;;;;;;;;25.96;56.05;100635.94;5033951;28;19913;-87
2022/07/10 01:36:42;;;;;;;;;;;;;;;25.94;56.75;100634.19;5022904;28;19963;-87
2022/07/10 01:39:08;;;;;;;;;;;;;;;25.95;56.12;100625.25;5047621;28;19956;-88
2022/07/10 01:41:33;;;;;;;;;;;;;;;26.03;56.05;100630.50;5029569;28;19913;-88
2022/07/10 01:43:59;;;;;;;;;;;;;;;25.97;56.32;100628.78;5018848;28;19912;-88
2022/07/10 01:46:25;;;;;;;;;;;;;;;25.98;56.15;100634.13;5036774;28;20344;-87
2022/07/10 01:48:50;;;;;;;;;;;;;;;26.02;56.33;100629.63;5033826;28;19913;-86
2022/07/10 01:51:16;;;;;;;;;;;;;;;26.05;56.47;100626.03;5033208;28;20017;-86
2022/07/10 01:53:42;;;;;;;;;;;;;;;26.06;56.06;100636.72;5033413;28;20307;-87
2022/07/10 01:56:08;;;;;;;;;;;;;;;26.01;56.01;100633.19;5036373;28;20316;-87
2022/07/10 01:58:34;;;;;;;;;;;;;;;26.06;56.34;100635.84;5055711;28;19912;-86
2022/07/10 02:01:00;;;;;;;;;;;;;;;26.14;55.81;100642.88;5034514;28;19912;-86
2022/07/10 02:06:09;;;;;;;;;;;;;;;26.12;55.86;100635.75;5039029;28;19970;-87
2022/07/10 02:08:34;;;;;;;;;;;;;;;26.19;55.71;100637.47;5034749;28;19909;-87
2022/07/10 02:11:00;;;;;;;;;;;;;;;26.18;55.36;100628.53;5028268;28;19967;-87
2022/07/10 02:13:27;;;;;;;;;;;;;;;26.16;55.44;100642.81;5025079;28;19913;-88
2022/07/10 02:15:53;;;;;;;;;;;;;;;26.15;55.41;100633.03;5037670;28;19912;-89
2022/07/10 02:18:19;;;;;;;;;;;;;;;26.06;56.19;100636.72;5019610;28;19951;-87
2022/07/10 02:20:44;;;;;;;;;;;;;;;26.11;55.78;100637.53;5016387;28;20030;-87
2022/07/10 02:23:10;;;;;;;;;;;;;;;26.11;55.67;100632.19;5036382;28;20425;-87
2022/07/10 02:25:35;;;;;;;;;;;;;;;26.09;55.63;100628.63;5047653;28;20030;-87
2022/07/10 02:28:01;;;;;;;;;;;;;;;26.09;56.03;100622.41;5029389;28;19995;-86
2022/07/10 02:30:26;;;;;;;;;;;;;;;26.05;56.19;100623.34;5055645;28;19951;-87
2022/07/10 02:32:51;;;;;;;;;;;;;;;26.04;56.44;100632.31;5036255;28;19912;-87
2022/07/10 02:35:17;;;;;;;;;;;;;;;26.13;56.45;100641.09;5035032;28;20020;-88
2022/07/10 02:37:42;;;;;;;;;;;;;;;26.09;56.37;100643.81;5035251;28;20490;-86
2022/07/10 02:40:08;;;;;;;;;;;;;;;26.04;56.75;100640.31;5047021;28;19928;-87
2022/07/10 02:42:33;;;;;;;;;;;;;;;26.12;56.48;100631.28;5027821;28;19965;-87
2022/07/10 02:44:59;;;;;;;;;;;;;;;26.03;56.94;100635.84;5057057;28;20372;-86
2022/07/10 02:47:24;;;;;;;;;;;;;;;26.11;56.84;100636.66;5034242;28;19913;-87
2022/07/10 02:49:50;;;;;;;;;;;;;;;25.96;57.25;100632.38;5033532;28;20387;-87
2022/07/10 02:52:15;;;;;;;;;;;;;;;26.02;56.83;100634.97;5035308;28;19921;-86
2022/07/10 02:54:41;;;;;;;;;;;;;;;26.05;56.70;100650.13;5034941;28;19912;-86
2022/07/10 02:57:06;;;;;;;;;;;;;;;25.81;57.18;100644.09;5035684;28;19916;-87
2022/07/10 02:59:32;;;;;;;;;;;;;;;25.73;57.41;100641.50;5018921;28;20323;-88
2022/07/10 03:01:57;;;;;;;;;;;;;;;25.58;57.15;100629.16;5025359;28;19913;-87
2022/07/10 03:04:23;;;;;;;;;;;;;;;25.56;57.52;100636.31;5054966;28;19913;-86
2022/07/10 03:06:48;;;;;;;;;;;;;;;25.58;57.57;100639.00;5038145;28;19959;-88
2022/07/10 03:09:14;;;;;;;;;;;;;;;25.63;57.21;100645.16;5034928;28;20314;-86
2022/07/10 03:11:40;;;;;;;;;;;;;;;25.52;57.50;100644.38;5029360;28;19913;-86
2022/07/10 03:14:05;;;;;;;;;;;;;;;25.59;57.31;100643.44;5037484;28;19913;-87
2022/07/10 03:16:31;;;;;;;;;;;;;;;25.63;57.39;100650.50;5052517;28;19970;-86
2022/07/10 03:18:57;;;;;;;;;;;;;;;25.63;57.10;100655.84;5028311;28;19916;-88
2022/07/10 03:21:22;;;;;;;;;;;;;;;25.65;57.01;100650.50;5036562;28;19913;-88
2022/07/10 03:23:48;;;;;;;;;;;;;;;25.58;57.57;100647.88;5050224;28;19923;-86
2022/07/10 03:26:13;;;;;;;;;;;;;;;25.56;57.18;100647.00;5051989;28;19919;-88
2022/07/10 03:28:38;;;;;;;;;;;;;;;25.66;57.13;100654.97;5025443;28;19935;-88
2022/07/10 03:31:04;;;;;;;;;;;;;;;25.68;56.85;100658.50;5042869;28;19912;-87
2022/07/10 03:33:29;;;;;;;;;;;;;;;25.80;56.59;100667.31;5040856;28;19921;-87
2022/07/10 03:35:55;;;;;;;;;;;;;;;25.78;56.56;100663.75;5034090;28;19912;-85
2022/07/10 03:38:20;;;;;;;;;;;;;;;25.89;56.28;100669.03;5053185;28;19916;-84
2022/07/10 03:40:47;;;;;;;;;;;;;;;25.89;56.39;100663.66;5017676;28;19912;-86
2022/07/10 03:43:14;;;;;;;;;;;;;;;25.67;56.91;100657.59;5036920;28;20015;-86
2022/07/10 03:45:40;;;;;;;;;;;;;;;25.70;56.81;100654.91;5022362;28;20354;-86
2022/07/10 03:48:05;;;;;;;;;;;;;;;25.74;56.78;100659.34;5037143;28;19913;-87
2022/07/10 03:50:31;;;;;;;;;;;;;;;25.66;56.82;100668.34;5034172;28;19912;-86
2022/07/10 03:52:56;;;;;;;;;;;;;;;25.76;56.67;100665.56;5017572;28;19912;-86
2022/07/10 03:55:21;;;;;;;;;;;;;;;25.83;56.28;100669.06;5033628;28;19935;-87
2022/07/10 03:58:02;;;;;;;;;;;;;;;25.75;56.48;100676.25;5014109;28;19917;-87
2022/07/10 04:00:28;;;;;;;;;;;;;;;25.84;56.10;100680.63;5034605;28;19947;-87
2022/07/10 04:02:55;;;;;;;;;;;;;;;25.89;56.16;100678.84;5034207;28;19935;-87
2022/07/10 04:05:20;;;;;;;;;;;;;;;25.92;56.25;100681.47;5017441;28;19921;-87
2022/07/10 04:07:46;;;;;;;;;;;;;;;25.92;56.19;100687.69;5051709;28;19920;-87
2022/07/10 04:10:11;;;;;;;;;;;;;;;25.89;56.17;100687.75;5041803;28;19955;-88
2022/07/10 04:12:36;;;;;;;;;;;;;;;25.83;56.55;100687.78;5052398;28;19912;-87
2022/07/10 04:15:02;;;;;;;;;;;;;;;25.88;56.19;100683.25;5034071;28;20307;-88
2022/07/10 04:17:28;;;;;;;;;;;;;;;25.91;56.02;100687.75;5053682;28;19916;-87
2022/07/10 04:19:54;;;;;;;;;;;;;;;25.88;56.30;100687.72;5018837;28;19908;-87
2022/07/10 04:22:19;;;;;;;;;;;;;;;25.90;56.34;100689.50;5052216;28;20008;-88
2022/07/10 04:24:44;;;;;;;;;;;;;;;25.94;56.27;100687.69;5015565;28;20372;-88
2022/07/10 04:27:10;;;;;;;;;;;;;;;25.93;56.13;100689.50;5034908;28;19951;-88
2022/07/10 04:29:35;;;;;;;;;;;;;;;25.93;56.00;100694.84;5016976;28;19919;-87
2022/07/10 04:32:01;;;;;;;;;;;;;;;25.92;56.24;100698.41;5031292;28;19912;-88
2022/07/10 04:34:26;;;;;;;;;;;;;;;25.88;56.01;100688.59;5053747;28;19952;-87
2022/07/10 04:36:52;;;;;;;;;;;;;;;25.92;56.02;100701.09;5025735;28;19917;-88
2022/07/10 04:39:18;;;;;;;;;;;;;;;25.92;56.13;100705.56;5033265;28;20004;-87
2022/07/10 04:41:43;;;;;;;;;;;;;;;25.90;56.09;100699.34;5033380;28;20373;-88
2022/07/10 04:44:08;;;;;;;;;;;;;;;25.89;56.17;100706.47;5050985;28;20062;-87
2022/07/10 04:46:34;;;;;;;;;;;;;;;25.87;56.29;100702.03;5054728;28;19913;-88
2022/07/10 04:49:00;;;;;;;;;;;;;;;25.86;56.50;100698.44;5037898;28;19916;-88
2022/07/10 04:51:26;;;;;;;;;;;;;;;25.87;56.18;100704.69;5012079;28;19920;-89
2022/07/10 04:53:53;;;;;;;;;;;;;;;25.87;56.23;100699.34;5033009;28;19972;-89
2022/07/10 04:56:18;;;;;;;;;;;;;;;25.81;56.45;100697.59;5053522;28;19923;-89
2022/07/10 04:58:44;;;;;;;;;;;;;;;25.83;56.47;100703.81;5050111;28;19913;-88
2022/07/10 05:01:09;;;;;;;;;;;;;;;25.84;56.24;100700.22;5050752;28;20375;-87
2022/07/10 05:03:35;;;;;;;;;;;;;;;25.76;56.49;100702.09;5051085;28;20327;-88
2022/07/10 05:06:00;;;;;;;;;;;;;;;25.83;56.58;100710.97;5051276;28;19909;-88
2022/07/10 05:08:26;;;;;;;;;;;;;;;25.79;56.34;100707.44;5027969;28;19970;-87
2022/07/10 05:10:51;;;;;;;;;;;;;;;25.84;56.34;100710.06;5034710;28;20315;-87
2022/07/10 05:13:16;;;;;;;;;;;;;;;25.83;56.23;100711.84;5032967;28;19963;-83
2022/07/10 05:15:42;;;;;;;;;;;;;;;25.80;56.57;100719.88;5034704;28;19959;-87
2022/07/10 05:18:07;;;;;;;;;;;;;;;25.79;56.48;100708.31;5053186;28;19935;-86
2022/07/10 05:20:35;;;;;;;;;;;;;;;25.76;56.45;100711.03;5048756;28;19913;-86
2022/07/10 05:23:00;;;;;;;;;;;;;;;25.76;56.44;100718.16;5049997;28;19950;-86
2022/07/10 05:25:27;;;;;;;;;;;;;;;25.78;56.35;100713.66;5031966;28;20430;-85
2022/07/10 05:27:52;;;;;;;;;;;;;;;25.73;56.46;100705.69;5033318;28;19909;-90
2022/07/10 05:30:18;;;;;;;;;;;;;;;25.75;56.52;100700.34;5032359;28;19965;-88
2022/07/10 05:32:44;;;;;;;;;;;;;;;25.76;56.33;100702.09;5062159;28;20348;-87
2022/07/10 05:35:09;;;;;;;;;;;;;;;25.70;56.53;100708.41;5034288;28;20050;-88
2022/07/10 05:37:35;;;;;;;;;;;;;;;25.70;56.53;100708.41;5033696;28;20424;-89
2022/07/10 05:40:00;;;;;;;;;;;;;;;25.70;56.42;100708.41;5017826;28;20451;-88
2022/07/10 05:42:26;;;;;;;;;;;;;;;25.75;56.21;100705.69;5030284;28;20456;-89
2022/07/10 05:44:51;;;;;;;;;;;;;;;25.72;56.40;100714.63;5025149;28;20303;-87
2022/07/10 05:47:17;;;;;;;;;;;;;;;25.62;56.64;100712.06;5030807;28;19916;-85
2022/07/10 05:49:42;;;;;;;;;;;;;;;25.62;56.65;100706.72;5050922;28;19909;-84
2022/07/10 05:52:07;;;;;;;;;;;;;;;25.65;56.42;100702.19;5037036;28;19940;-84
2022/07/10 05:54:33;;;;;;;;;;;;;;;25.68;56.32;100703.97;5054494;28;19951;-83
2022/07/10 05:56:58;;;;;;;;;;;;;;;25.70;56.19;100707.53;5054305;28;19978;-84
2022/07/10 05:59:24;;;;;;;;;;;;;;;25.67;56.10;100713.78;5052097;28;20383;-83
2022/07/10 06:01:49;;;;;;;;;;;;;;;25.65;56.03;100707.53;5057843;28;19913;-91
2022/07/10 06:04:15;;;;;;;;;;;;;;;25.65;56.09;100714.69;5039987;28;20303;-84
2022/07/10 06:06:40;;;;;;;;;;;;;;;25.65;56.29;100712.03;5041384;28;20393;-88
2022/07/10 06:09:06;;;;;;;;;;;;;;;25.70;56.16;100712.88;5044747;28;20000;-89
2022/07/10 06:11:31;;;;;;;;;;;;;;;25.57;56.09;100718.34;5036467;28;19930;-88
2022/07/10 06:13:57;;;;;;;;;;;;;;;25.62;56.12;100720.97;5054446;28;19944;-87
2022/07/10 06:16:26;;;;;;;;;;;;;;;25.54;56.09;100731.72;5054264;28;19916;-88
2022/07/10 06:18:52;;;;;;;;;;;;;;;25.55;56.31;100727.28;5037038;28;19931;-88
2022/07/10 06:21:21;;;;;;;;;;;;;;;25.58;56.03;100733.47;5020676;28;19909;-88
2022/07/10 06:23:47;;;;;;;;;;;;;;;25.60;56.26;100731.66;5013737;28;19920;-87
2022/07/10 06:26:12;;;;;;;;;;;;;;;25.60;56.15;100731.66;5040604;28;19912;-87
2022/07/10 06:28:39;;;;;;;;;;;;;;;25.56;56.30;100734.38;5018379;28;20400;-88
2022/07/10 06:31:07;;;;;;;;;;;;;;;25.65;55.83;100744.13;5055350;28;20014;-88
2022/07/10 06:33:35;;;;;;;;;;;;;;;25.60;56.20;100737.00;5035291;28;19913;-86
2022/07/10 06:36:00;;;;;;;;;;;;;;;25.52;56.33;100737.97;5052270;28;19995;-87
2022/07/10 06:38:26;;;;;;;;;;;;;;;25.47;56.23;100737.13;5033848;28;20008;-87
2022/07/10 06:40:51;;;;;;;;;;;;;;;25.50;56.03;100737.09;5055666;28;19944;-87
2022/07/10 06:43:17;;;;;;;;;;;;;;;25.47;56.17;100737.13;5043000;28;19931;-86
2022/07/10 06:45:42;;;;;;;;;;;;;;;25.44;56.66;100735.34;5055068;28;19916;-88
2022/07/10 06:48:08;;;;;;;;;;;;;;;25.51;56.16;100737.09;5021770;28;20024;-83
2022/07/10 06:50:36;;;;;;;;;;;;;;;25.51;56.13;100750.47;5054836;28;19958;-86
2022/07/10 06:53:03;;;;;;;;;;;;;;;25.54;55.99;100742.41;5036507;28;19908;-88
2022/07/10 06:55:32;;;;;;;;;;;;;;;25.51;55.83;100738.91;5042360;28;19920;-85
2022/07/10 06:57:57;;;;;;;;;;;;;;;25.49;56.13;100740.69;5023746;28;20403;-87
2022/07/10 07:00:23;;;;;;;;;;;;;;;25.53;55.96;100747.78;5053413;28;19912;-87
2022/07/10 07:02:48;;;;;;;;;;;;;;;25.55;56.28;100744.19;5031183;28;20448;-88
2022/07/10 07:05:14;;;;;;;;;;;;;;;25.48;56.43;100750.47;5037845;28;19908;-87
2022/07/10 07:07:39;;;;;;;;;;;;;;;25.41;56.34;100745.22;5039614;28;19956;-87
2022/07/10 07:10:05;;;;;;;;;;;;;;;25.49;56.15;100744.25;5055868;28;19908;-86
2022/07/10 07:12:31;;;;;;;;;;;;;;;25.55;56.24;100746.00;5044943;28;20568;-86
2022/07/10 07:14:56;;;;;;;;;;;;;;;25.55;56.17;100741.53;5036572;28;19959;-86
2022/07/10 07:17:25;;;;;;;;;;;;;;;25.50;56.53;100746.00;5053284;28;19919;-83
2022/07/10 07:25:22;;;;;;;;;;;;;;;25.59;56.35;100745.94;5070301;28;20341;-84
2022/07/10 07:27:50;;;;;;;;;;;;;;;25.56;56.39;100740.59;5066677;28;19951;-85
2022/07/10 07:30:15;;;;;;;;;;;;;;;25.55;56.38;100743.31;5047164;28;19908;-84
2022/07/10 07:32:44;;;;;;;;;;;;;;;25.51;56.46;100747.78;5067563;28;20396;-83
2022/07/10 07:35:10;;;;;;;;;;;;;;;25.58;56.45;100746.84;5055456;28;19913;-83
2022/07/10 07:37:36;;;;;;;;;;;;;;;25.58;56.36;100743.28;5051941;28;19912;-83
2022/07/10 07:40:03;;;;;;;;;;;;;;;25.57;56.55;100750.44;5052081;28;19917;-82
2022/07/10 07:42:28;;;;;;;;;;;;;;;25.56;56.79;100740.59;5052092;28;19909;-83
2022/07/10 07:44:54;;;;;;;;;;;;;;;25.56;56.71;100742.41;5058699;28;20007;-82
2022/07/10 07:47:19;;;;;;;;;;;;;;;25.63;56.53;100751.25;5038281;28;20011;-81
2022/07/10 07:49:45;;;;;;;;;;;;;;;25.53;56.72;100739.78;5034413;28;20399;-82
2022/07/10 07:52:10;;;;;;;;;;;;;;;25.45;56.85;100733.59;5051515;28;20470;-82
2022/07/10 07:54:36;;;;;;;;;;;;;;;25.49;56.80;100736.22;5034165;28;19916;-82
2022/07/10 07:57:01;;;;;;;;;;;;;;;25.46;57.19;100740.69;5051816;28;20350;-82
2022/07/10 07:59:27;;;;;;;;;;;;;;;25.50;56.88;100739.78;5054495;28;19969;-82
2022/07/10 08:01:52;;;;;;;;;;;;;;;25.34;57.29;100728.31;5051681;28;19938;-83
2022/07/10 08:04:17;;;;;;;;;;;;;;;25.35;57.17;100743.47;5020138;28;19938;-82
2022/07/10 08:06:43;;;;;;;;;;;;;;;25.42;56.90;100729.16;5052681;28;19909;-83
2022/07/10 08:09:08;;;;;;;;;;;;;;;25.43;56.69;100746.09;5051545;28;19920;-82
2022/07/10 08:11:34;;;;;;;;;;;;;;;25.36;57.36;100730.09;5043122;28;19915;-83
2022/07/10 08:13:59;;;;;;;;;;;;;;;25.36;57.23;100735.44;5051567;28;20292;-83
2022/07/10 08:16:26;;;;;;;;;;;;;;;25.33;57.37;100742.56;5051891;28;20353;-83
2022/07/10 08:18:51;;;;;;;;;;;;;;;25.39;57.51;100740.75;5050081;28;20457;-83
2022/07/10 08:21:17;;;;;;;;;;;;;;;25.42;57.88;100742.53;5051688;28;19913;-82
2022/07/10 08:23:42;;;;;;;;;;;;;;;25.43;57.91;100741.63;5043718;28;20277;-83
2022/07/10 08:26:08;;;;;;;;;;;;;;;25.45;57.41;100736.25;5051321;28;19956;-83
2022/07/10 08:28:33;;;;;;;;;;;;;;;25.48;58.12;100745.13;5037875;28;20380;-84
2022/07/10 08:30:59;;;;;;;;;;;;;;;25.42;57.90;100747.88;5059220;28;20003;-84
2022/07/10 08:33:24;;;;;;;;;;;;;;;25.45;57.78;100730.91;5052168;28;19909;-83
2022/07/10 08:35:50;;;;;;;;;;;;;;;25.24;57.17;100738.19;5051756;28;19909;-84
2022/07/10 08:38:15;;;;;;;;;;;;;;;25.31;58.00;100731.88;5024222;28;19917;-84
2022/07/10 08:40:41;;;;;;;;;;;;;;;25.30;57.40;100734.59;5036796;28;19950;-83
2022/07/10 08:43:06;;;;;;;;;;;;;;;25.24;57.69;100735.50;5015037;28;20404;-82
2022/07/10 08:45:33;;;;;;;;;;;;;;;25.30;57.40;100734.59;5046288;28;19908;-82
2022/07/10 08:48:02;;;;;;;;;;;;;;;25.28;57.69;100729.25;5032164;28;19952;-84
2022/07/10 08:50:28;;;;;;;;;;;;;;;25.31;57.54;100739.03;5051128;28;19919;-84
2022/07/10 08:53:02;;;;;;;;;;;;;;;25.32;57.27;100736.34;5034220;28;19995;-83
2022/07/10 08:55:28;;;;;;;;;;;;;;;25.34;56.88;100729.22;5051781;28;19970;-84
2022/07/10 08:57:55;;;;;;;;;;;;;;;25.36;57.13;100747.91;5037461;28;19924;-84
2022/07/10 09:00:21;;;;;;;;;;;;;;;25.34;57.63;100742.56;5051575;28;19920;-84
2022/07/10 09:02:46;;;;;;;;;;;;;;;25.35;56.88;100746.13;5031057;28;19912;-84
2022/07/10 09:05:11;;;;;;;;;;;;;;;25.35;57.39;100751.47;5033729;28;20340;-83
2022/07/10 09:07:37;;;;;;;;;;;;;;;25.37;57.76;100755.03;5050430;28;20368;-82
2022/07/10 09:10:06;;;;;;;;;;;;;;;25.34;56.91;100750.59;5037554;28;19909;-81
2022/07/10 09:12:48;;;;;;;;;;;;;;;25.30;56.77;100746.16;5044290;28;20370;-82
2022/07/10 09:15:14;;;;;;;;;;;;;;;25.36;57.40;100751.47;5048189;28;19912;-83
2022/07/10 09:17:50;;;;;;;;;;;;;;;25.36;57.39;100743.44;5051211;28;20019;-83
2022/07/10 09:20:31;;;;;;;;;;;;;;;25.37;56.96;100755.03;5020235;28;20026;-81
2022/07/10 09:22:57;;;;;;;;;;;;;;;25.37;57.12;100745.22;5034325;28;19913;-82
2022/07/10 09:25:24;;;;;;;;;;;;;;;25.34;57.08;100741.69;5037147;28;20026;-83
2022/07/10 09:27:54;;;;;;;;;;;;;;;25.34;57.45;100741.69;5030782;28;20476;-83
2022/07/10 09:30:39;;;;;;;;;;;;;;;25.34;57.06;100736.34;5055026;28;19955;-86
2022/07/10 09:33:26;;;;;;;;;;;;;;;25.35;57.37;100740.78;5035752;28;19962;-87
2022/07/10 09:36:10;;;;;;;;;;;;;;;25.37;57.36;100730.97;5036422;28;19967;-87
2022/07/10 09:38:39;;;;;;;;;;;;;;;25.38;57.04;100735.44;5034732;28;19917;-89
2022/07/10 09:41:24;;;;;;;;;;;;;;;25.34;56.96;100731.00;5043003;28;19917;-87
2022/07/10 09:43:49;;;;;;;;;;;;;;;25.41;57.41;100732.72;5035528;28;19916;-87
2022/07/10 09:46:19;;;;;;;;;;;;;;;25.40;57.26;100736.31;5060558;28;20306;-86
2022/07/10 09:48:44;;;;;;;;;;;;;;;25.32;56.77;100731.00;5054528;28;19990;-85
2022/07/10 09:51:10;;;;;;;;;;;;;;;25.33;56.23;100731.88;5056615;28;19967;-87
2022/07/10 09:53:45;;;;;;;;;;;;;;;25.35;56.81;100730.09;5052861;28;19966;-86
2022/07/10 09:56:11;;;;;;;;;;;;;;;25.34;56.73;100728.31;5052313;28;20018;-87
2022/07/10 09:58:37;;;;;;;;;;;;;;;25.33;56.83;100716.72;5052924;28;19916;-87
2022/07/10 10:01:03;;;;;;;;;;;;;;;25.37;56.99;100722.94;5044400;28;19991;-86
2022/07/10 10:03:30;;;;;;;;;;;;;;;25.40;56.94;100714.91;5053059;28;19912;-86
2022/07/10 10:05:58;;;;;;;;;;;;;;;25.41;56.45;100722.03;5039008;28;20465;-86
2022/07/10 10:08:30;;;;;;;;;;;;;;;25.43;56.94;100716.69;5040044;28;20292;-87
2022/07/10 10:10:56;;;;;;;;;;;;;;;25.44;55.97;100727.34;5055978;28;19920;-87
2022/07/10 10:13:23;;;;;;;;;;;;;;;25.46;56.17;100719.31;5037454;28;19951;-85
2022/07/10 10:15:51;;;;;;;;;;;;;;;25.48;54.85;100723.75;5014650;28;19913;-87
2022/07/10 10:18:21;;;;;;;;;;;;;;;25.44;54.92;100721.09;5037920;28;19924;-87
2022/07/10 10:20:47;;;;;;;;;;;;;;;25.45;54.01;100723.78;5033453;28;20395;-86
2022/07/10 10:23:13;;;;;;;;;;;;;;;25.45;54.87;100720.22;5038127;28;19960;-85
2022/07/10 10:25:43;;;;;;;;;;;;;;;25.33;54.47;100723.88;5034026;28;19954;-86
2022/07/10 10:28:09;;;;;;;;;;;;;;;25.23;54.27;100722.16;5025221;28;19913;-86
2022/07/10 10:30:42;;;;;;;;;;;;;;;25.34;55.61;100731.88;5019610;28;19909;-86
2022/07/10 10:33:26;;;;;;;;;;;;;;;25.46;55.49;100716.63;5050063;28;20000;-86
2022/07/10 10:35:52;;;;;;;;;;;;;;;25.30;54.79;100694.50;5067431;28;19940;-82
2022/07/10 10:38:17;;;;;;;;;;;;;;;25.48;55.66;100713.03;5066144;28;19917;-85
2022/07/10 10:40:43;;;;;;;;;;;;;;;25.51;55.59;100709.47;5041442;28;20372;-85
2022/07/10 10:43:18;;;;;;;;;;;;;;;25.56;55.46;100711.19;5053693;28;19944;-85
2022/07/10 10:45:45;;;;;;;;;;;;;;;25.56;55.95;100707.63;5053045;28;19955;-83
2022/07/10 10:48:12;;;;;;;;;;;;;;;25.53;56.00;100705.00;5023153;28;19924;-84
2022/07/10 10:50:42;;;;;;;;;;;;;;;25.52;55.33;100708.56;5044838;28;19960;-86
2022/07/10 10:53:18;;;;;;;;;;;;;;;25.41;54.64;100705.09;5056226;28;19921;-85
2022/07/10 10:56:02;;;;;;;;;;;;;;;25.48;56.28;100702.34;5036351;28;19908;-86
2022/07/10 10:58:37;;;;;;;;;;;;;;;25.56;55.63;100700.50;5041095;28;20012;-84
2022/07/10 11:01:24;;;;;;;;;;;;;;;25.55;55.54;100705.88;5028578;28;20384;-86
2022/07/10 11:04:04;;;;;;;;;;;;;;;25.46;55.03;100700.59;5024333;28;19913;-85
2022/07/10 11:06:59;;;;;;;;;;;;;;;25.47;55.11;100702.38;5049248;28;19913;-81
2022/07/10 11:09:25;;;;;;;;;;;;;;;25.48;55.41;100694.31;5048383;28;20050;-84
2022/07/10 11:12:00;;;;;;;;;;;;;;;25.49;54.87;100703.25;5054578;28;19950;-84
2022/07/10 11:14:29;;;;;;;;;;;;;;;25.41;55.19;100703.31;5056662;28;19912;-85
2022/07/10 11:16:55;;;;;;;;;;;;;;;25.58;55.48;100713.88;5016923;28;19917;-84
2022/07/10 11:19:24;;;;;;;;;;;;;;;25.67;55.26;100718.25;5021776;28;19920;-86
2022/07/10 11:21:52;;;;;;;;;;;;;;;25.66;55.80;100712.00;5037207;28;20399;-84
2022/07/10 11:24:28;;;;;;;;;;;;;;;25.68;55.47;100706.66;5039994;28;20014;-84
2022/07/10 11:26:59;;;;;;;;;;;;;;;25.72;55.67;100709.28;5039734;28;20392;-84
2022/07/10 11:29:24;;;;;;;;;;;;;;;25.77;55.52;100704.75;5034935;28;19913;-84
2022/07/10 11:31:53;;;;;;;;;;;;;;;25.77;56.00;100717.25;5054041;28;19919;-84
2022/07/10 11:34:19;;;;;;;;;;;;;;;25.71;55.97;100711.97;5038557;28;19912;-84
2022/07/10 11:36:44;;;;;;;;;;;;;;;25.70;56.13;100710.22;5050123;28;20310;-83
2022/07/10 11:39:12;;;;;;;;;;;;;;;25.73;56.36;100704.81;5031900;28;19917;-85
2022/07/10 11:41:47;;;;;;;;;;;;;;;25.77;56.21;100701.22;5046287;28;19912;-84
2022/07/10 11:44:20;;;;;;;;;;;;;;;25.77;56.27;100711.91;5047241;28;20007;-82
2022/07/10 11:46:50;;;;;;;;;;;;;;;25.77;56.14;100703.88;5018339;28;19999;-86
2022/07/10 11:49:15;;;;;;;;;;;;;;;25.86;55.67;100713.59;5035554;28;20387;-85
2022/07/10 11:51:44;;;;;;;;;;;;;;;25.79;55.95;100710.09;5029750;28;19970;-84
2022/07/10 11:54:15;;;;;;;;;;;;;;;25.84;56.17;100712.72;5035814;28;19964;-85
2022/07/10 11:56:42;;;;;;;;;;;;;;;25.84;55.88;100710.94;5048253;28;19942;-84
2022/07/10 11:59:11;;;;;;;;;;;;;;;25.82;56.17;100709.19;5043048;28;19913;-85
2022/07/10 12:01:46;;;;;;;;;;;;;;;25.79;56.30;100708.31;5055851;28;19939;-85
2022/07/10 12:04:12;;;;;;;;;;;;;;;25.77;56.33;100714.59;5050421;28;19909;-85
2022/07/10 12:06:44;;;;;;;;;;;;;;;25.77;56.53;100717.25;5042360;28;19909;-85
2022/07/10 12:09:10;;;;;;;;;;;;;;;25.80;56.35;100706.50;5034648;28;19919;-84
2022/07/10 12:11:36;;;;;;;;;;;;;;;25.80;56.26;100707.44;5039566;28;19909;-86
2022/07/10 12:14:16;;;;;;;;;;;;;;;25.81;56.60;100708.31;5033613;28;19915;-85
2022/07/10 12:16:45;;;;;;;;;;;;;;;25.79;56.50;100705.63;5055752;28;20391;-85
2022/07/10 12:19:14;;;;;;;;;;;;;;;25.75;56.60;100714.59;5054701;28;19912;-85
2022/07/10 12:21:43;;;;;;;;;;;;;;;25.82;56.38;100710.06;5020212;28;20418;-84
2022/07/10 12:24:09;;;;;;;;;;;;;;;25.79;56.41;100719.00;5047359;28;19908;-85
2022/07/10 12:26:37;;;;;;;;;;;;;;;25.83;56.57;100719.00;5048093;28;20327;-85
2022/07/10 12:29:03;;;;;;;;;;;;;;;25.83;56.65;100722.56;5027299;28;19917;-85
2022/07/10 12:31:31;;;;;;;;;;;;;;;25.86;56.70;100721.63;5001603;28;19971;-84
2022/07/10 12:34:04;;;;;;;;;;;;;;;25.84;56.78;100726.09;5016709;28;19919;-85
2022/07/10 12:36:46;;;;;;;;;;;;;;;25.88;56.70;100727.84;5038393;28;19995;-84
2022/07/10 12:39:12;;;;;;;;;;;;;;;25.88;56.76;100719.81;5032821;28;19917;-84
2022/07/10 12:41:55;;;;;;;;;;;;;;;25.86;56.52;100729.66;5012293;28;19936;-85
2022/07/10 12:44:30;;;;;;;;;;;;;;;25.84;56.78;100715.41;5033055;28;19912;-84